Flugplatz Mühlhausen

Für EDEQ sind keine METAR/TAF Berichte vorhanden.
Es werden die Flugwettermeldungen vom Flugplatz Erfurt in 38 km Entfernung angezeigt.

Bericht für EDDE

vom 28.10. um 07:50 UTC

Wind 9 kt aus 190°

Sichtweite 10 km oder mehr

aufgelockert bewölkt in 3600 ft

Temperatur 9.0°C

Taupunkt 6.0°C

Luftfeuchtigkeit 81%

Luftdruck 1009 hPa

EDDE 280750Z 19009KT 9999 SCT036 09/06 Q1009 TEMPO 20015G25KT

Prognose für EDDE

vom 28.10. um 05:00 UTC

Zwischen 06:00 UTC und 06:00 UTC

Wind 15 kt aus 210° in Böen 25 kt

Sichtweite 10 km oder mehr

aufgebrochene Bewölkung in 2000 ft

TAF EDDE 280500Z 2806/2906 21015G25KT 9999 BKN020
Impressum